sensor_id;sensor_type;location;lat;lon;timestamp;temperature;humidity
14670;DHT22;7423;48.722;9.350;2022-12-29T00:00:17;7.80;99.90
14670;DHT22;7423;48.722;9.350;2022-12-29T00:02:44;7.80;99.90
14670;DHT22;7423;48.722;9.350;2022-12-29T00:05:11;7.80;99.90
14670;DHT22;7423;48.722;9.350;2022-12-29T00:07:38;7.80;99.90
14670;DHT22;7423;48.722;9.350;2022-12-29T00:10:05;7.80;99.90
14670;DHT22;7423;48.722;9.350;2022-12-29T00:12:32;7.80;99.90
14670;DHT22;7423;48.722;9.350;2022-12-29T00:15:19;7.80;99.90
14670;DHT22;7423;48.722;9.350;2022-12-29T00:18:05;7.90;99.90
14670;DHT22;7423;48.722;9.350;2022-12-29T00:20:36;7.90;99.90
14670;DHT22;7423;48.722;9.350;2022-12-29T00:23:24;7.90;99.90
14670;DHT22;7423;48.722;9.350;2022-12-29T00:26:16;7.90;99.90
14670;DHT22;7423;48.722;9.350;2022-12-29T00:29:02;7.90;99.90
14670;DHT22;7423;48.722;9.350;2022-12-29T00:31:48;7.90;99.90
14670;DHT22;7423;48.722;9.350;2022-12-29T00:34:33;7.90;99.90
14670;DHT22;7423;48.722;9.350;2022-12-29T00:37:19;7.90;99.90
14670;DHT22;7423;48.722;9.350;2022-12-29T00:40:06;7.90;99.90
14670;DHT22;7423;48.722;9.350;2022-12-29T00:42:51;8.00;99.90
14670;DHT22;7423;48.722;9.350;2022-12-29T00:45:40;8.00;99.90
14670;DHT22;7423;48.722;9.350;2022-12-29T00:48:08;8.00;99.90
14670;DHT22;7423;48.722;9.350;2022-12-29T00:50:34;8.00;99.90
14670;DHT22;7423;48.722;9.350;2022-12-29T00:53:01;8.00;99.90
14670;DHT22;7423;48.722;9.350;2022-12-29T00:55:28;8.00;99.90
14670;DHT22;7423;48.722;9.350;2022-12-29T00:57:55;8.00;99.90
14670;DHT22;7423;48.722;9.350;2022-12-29T01:00:22;8.00;99.90
14670;DHT22;7423;48.722;9.350;2022-12-29T01:02:49;8.10;99.90
14670;DHT22;7423;48.722;9.350;2022-12-29T01:05:15;8.10;99.90
14670;DHT22;7423;48.722;9.350;2022-12-29T01:07:43;8.10;99.90
14670;DHT22;7423;48.722;9.350;2022-12-29T01:10:10;8.10;99.90
14670;DHT22;7423;48.722;9.350;2022-12-29T01:12:37;8.10;99.90
14670;DHT22;7423;48.722;9.350;2022-12-29T01:15:09;8.10;99.90
14670;DHT22;7423;48.722;9.350;2022-12-29T01:17:37;8.10;99.90
14670;DHT22;7423;48.722;9.350;2022-12-29T01:20:05;8.10;99.90
14670;DHT22;7423;48.722;9.350;2022-12-29T01:22:32;8.10;99.90
14670;DHT22;7423;48.722;9.350;2022-12-29T01:24:59;8.20;99.90
14670;DHT22;7423;48.722;9.350;2022-12-29T01:27:26;8.20;99.90
14670;DHT22;7423;48.722;9.350;2022-12-29T01:29:53;8.10;99.90
14670;DHT22;7423;48.722;9.350;2022-12-29T01:32:20;8.20;99.90
14670;DHT22;7423;48.722;9.350;2022-12-29T01:34:47;8.20;99.90
14670;DHT22;7423;48.722;9.350;2022-12-29T01:37:14;8.20;99.90
14670;DHT22;7423;48.722;9.350;2022-12-29T01:39:41;8.20;99.90
14670;DHT22;7423;48.722;9.350;2022-12-29T01:42:16;8.20;99.90
14670;DHT22;7423;48.722;9.350;2022-12-29T01:44:55;8.20;99.90
14670;DHT22;7423;48.722;9.350;2022-12-29T01:47:36;8.20;99.90
14670;DHT22;7423;48.722;9.350;2022-12-29T01:52:56;8.20;99.90
14670;DHT22;7423;48.722;9.350;2022-12-29T01:55:40;8.30;99.90
14670;DHT22;7423;48.722;9.350;2022-12-29T01:58:10;8.20;99.90
14670;DHT22;7423;48.722;9.350;2022-12-29T02:00:38;8.30;99.90
14670;DHT22;7423;48.722;9.350;2022-12-29T02:03:06;8.30;99.90
14670;DHT22;7423;48.722;9.350;2022-12-29T02:05:58;8.30;99.90
14670;DHT22;7423;48.722;9.350;2022-12-29T02:08:29;8.30;99.90
14670;DHT22;7423;48.722;9.350;2022-12-29T02:10:58;8.30;99.90
14670;DHT22;7423;48.722;9.350;2022-12-29T02:13:27;8.30;99.90
14670;DHT22;7423;48.722;9.350;2022-12-29T02:19:23;8.40;99.90
14670;DHT22;7423;48.722;9.350;2022-12-29T02:22:24;8.40;99.90
14670;DHT22;7423;48.722;9.350;2022-12-29T02:36:36;8.40;99.90
14670;DHT22;7423;48.722;9.350;2022-12-29T02:42:13;8.40;99.90
14670;DHT22;7423;48.722;9.350;2022-12-29T02:45:04;8.40;99.90
14670;DHT22;7423;48.722;9.350;2022-12-29T02:50:42;8.50;99.90
14670;DHT22;7423;48.722;9.350;2022-12-29T02:53:18;8.50;99.90
14670;DHT22;7423;48.722;9.350;2022-12-29T02:56:06;8.50;99.90
14670;DHT22;7423;48.722;9.350;2022-12-29T02:58:32;8.50;99.90
14670;DHT22;7423;48.722;9.350;2022-12-29T03:07:38;8.50;99.90
14670;DHT22;7423;48.722;9.350;2022-12-29T03:10:47;8.60;99.90
14670;DHT22;7423;48.722;9.350;2022-12-29T03:13:39;8.60;99.90
14670;DHT22;7423;48.722;9.350;2022-12-29T03:16:46;8.70;99.90
14670;DHT22;7423;48.722;9.350;2022-12-29T03:19:19;8.80;99.90
14670;DHT22;7423;48.722;9.350;2022-12-29T03:21:52;8.90;99.90
14670;DHT22;7423;48.722;9.350;2022-12-29T03:24:43;9.10;99.90
14670;DHT22;7423;48.722;9.350;2022-12-29T03:27:17;9.20;99.90
14670;DHT22;7423;48.722;9.350;2022-12-29T03:29:51;9.50;99.90
14670;DHT22;7423;48.722;9.350;2022-12-29T03:32:28;9.80;99.90
14670;DHT22;7423;48.722;9.350;2022-12-29T03:34:58;10.00;99.90
14670;DHT22;7423;48.722;9.350;2022-12-29T03:37:30;10.20;99.90
14670;DHT22;7423;48.722;9.350;2022-12-29T03:40:01;10.30;99.90
14670;DHT22;7423;48.722;9.350;2022-12-29T03:42:30;10.50;99.90
14670;DHT22;7423;48.722;9.350;2022-12-29T03:45:00;10.70;99.90
14670;DHT22;7423;48.722;9.350;2022-12-29T03:47:27;10.80;99.90
14670;DHT22;7423;48.722;9.350;2022-12-29T03:49:53;11.00;99.90
14670;DHT22;7423;48.722;9.350;2022-12-29T03:52:20;11.10;99.90
14670;DHT22;7423;48.722;9.350;2022-12-29T03:54:47;11.30;99.90
14670;DHT22;7423;48.722;9.350;2022-12-29T03:57:14;11.40;99.90
14670;DHT22;7423;48.722;9.350;2022-12-29T03:59:40;11.50;99.90
14670;DHT22;7423;48.722;9.350;2022-12-29T04:02:07;11.60;99.90
14670;DHT22;7423;48.722;9.350;2022-12-29T04:04:34;11.70;99.90
14670;DHT22;7423;48.722;9.350;2022-12-29T04:07:01;11.80;99.90
14670;DHT22;7423;48.722;9.350;2022-12-29T04:09:28;11.80;99.90
14670;DHT22;7423;48.722;9.350;2022-12-29T04:11:56;11.80;99.90
14670;DHT22;7423;48.722;9.350;2022-12-29T04:14:23;11.90;99.90
14670;DHT22;7423;48.722;9.350;2022-12-29T04:16:49;12.10;99.90
14670;DHT22;7423;48.722;9.350;2022-12-29T04:19:16;12.20;99.90
14670;DHT22;7423;48.722;9.350;2022-12-29T04:21:44;12.30;99.90
14670;DHT22;7423;48.722;9.350;2022-12-29T04:24:10;12.20;99.90
14670;DHT22;7423;48.722;9.350;2022-12-29T04:26:39;12.30;99.90
14670;DHT22;7423;48.722;9.350;2022-12-29T04:29:06;12.30;99.90
14670;DHT22;7423;48.722;9.350;2022-12-29T04:31:33;12.40;99.90
14670;DHT22;7423;48.722;9.350;2022-12-29T04:34:00;12.50;99.90
14670;DHT22;7423;48.722;9.350;2022-12-29T04:36:27;12.50;99.90
14670;DHT22;7423;48.722;9.350;2022-12-29T04:38:55;12.60;99.90
14670;DHT22;7423;48.722;9.350;2022-12-29T04:41:23;12.60;99.90
14670;DHT22;7423;48.722;9.350;2022-12-29T04:43:50;12.60;99.90
14670;DHT22;7423;48.722;9.350;2022-12-29T04:46:17;12.60;99.90
14670;DHT22;7423;48.722;9.350;2022-12-29T04:48:44;12.70;99.90
14670;DHT22;7423;48.722;9.350;2022-12-29T04:51:10;12.70;99.90
14670;DHT22;7423;48.722;9.350;2022-12-29T04:53:38;12.70;99.90
14670;DHT22;7423;48.722;9.350;2022-12-29T04:56:05;12.60;99.90
14670;DHT22;7423;48.722;9.350;2022-12-29T04:58:32;12.50;99.90
14670;DHT22;7423;48.722;9.350;2022-12-29T05:00:59;12.50;99.90
14670;DHT22;7423;48.722;9.350;2022-12-29T05:03:25;12.60;99.90
14670;DHT22;7423;48.722;9.350;2022-12-29T05:05:56;12.60;99.90
14670;DHT22;7423;48.722;9.350;2022-12-29T05:08:23;12.60;99.90
14670;DHT22;7423;48.722;9.350;2022-12-29T05:10:54;12.60;99.90
14670;DHT22;7423;48.722;9.350;2022-12-29T05:13:21;12.60;99.90
14670;DHT22;7423;48.722;9.350;2022-12-29T05:15:50;12.70;99.90
14670;DHT22;7423;48.722;9.350;2022-12-29T05:18:18;12.70;99.90
14670;DHT22;7423;48.722;9.350;2022-12-29T05:20:46;12.70;99.90
14670;DHT22;7423;48.722;9.350;2022-12-29T05:23:14;12.70;99.90
14670;DHT22;7423;48.722;9.350;2022-12-29T05:25:43;12.70;99.90
14670;DHT22;7423;48.722;9.350;2022-12-29T05:28:12;12.70;99.90
14670;DHT22;7423;48.722;9.350;2022-12-29T05:30:40;12.70;99.90
14670;DHT22;7423;48.722;9.350;2022-12-29T05:33:07;12.80;99.90
14670;DHT22;7423;48.722;9.350;2022-12-29T05:35:33;12.80;99.90
14670;DHT22;7423;48.722;9.350;2022-12-29T05:38:00;12.90;99.90
14670;DHT22;7423;48.722;9.350;2022-12-29T05:40:27;12.80;99.90
14670;DHT22;7423;48.722;9.350;2022-12-29T05:42:54;12.80;99.90
14670;DHT22;7423;48.722;9.350;2022-12-29T05:45:21;12.90;99.90
14670;DHT22;7423;48.722;9.350;2022-12-29T05:47:47;13.00;99.90
14670;DHT22;7423;48.722;9.350;2022-12-29T05:50:14;12.90;99.90
14670;DHT22;7423;48.722;9.350;2022-12-29T05:52:43;13.00;99.90
14670;DHT22;7423;48.722;9.350;2022-12-29T05:55:11;12.90;99.90
14670;DHT22;7423;48.722;9.350;2022-12-29T05:57:38;13.00;99.90
14670;DHT22;7423;48.722;9.350;2022-12-29T06:00:05;13.00;99.90
14670;DHT22;7423;48.722;9.350;2022-12-29T06:02:33;13.10;99.90
14670;DHT22;7423;48.722;9.350;2022-12-29T06:05:00;13.00;99.90
14670;DHT22;7423;48.722;9.350;2022-12-29T06:07:27;12.90;99.90
14670;DHT22;7423;48.722;9.350;2022-12-29T06:09:54;13.00;99.90
14670;DHT22;7423;48.722;9.350;2022-12-29T06:12:21;13.10;99.90
14670;DHT22;7423;48.722;9.350;2022-12-29T06:14:48;13.00;99.90
14670;DHT22;7423;48.722;9.350;2022-12-29T06:17:15;13.00;99.90
14670;DHT22;7423;48.722;9.350;2022-12-29T06:19:42;13.00;99.90
14670;DHT22;7423;48.722;9.350;2022-12-29T06:22:10;13.00;99.90
14670;DHT22;7423;48.722;9.350;2022-12-29T06:24:38;12.90;99.90
14670;DHT22;7423;48.722;9.350;2022-12-29T06:27:05;12.90;99.90
14670;DHT22;7423;48.722;9.350;2022-12-29T06:29:33;12.80;99.90
14670;DHT22;7423;48.722;9.350;2022-12-29T06:32:01;12.80;99.90
14670;DHT22;7423;48.722;9.350;2022-12-29T06:34:28;12.80;99.90
14670;DHT22;7423;48.722;9.350;2022-12-29T06:36:55;12.80;99.90
14670;DHT22;7423;48.722;9.350;2022-12-29T06:39:21;12.80;99.90
14670;DHT22;7423;48.722;9.350;2022-12-29T06:41:52;12.80;99.90
14670;DHT22;7423;48.722;9.350;2022-12-29T06:44:23;12.70;99.90
14670;DHT22;7423;48.722;9.350;2022-12-29T06:46:50;12.60;99.90
14670;DHT22;7423;48.722;9.350;2022-12-29T06:49:17;12.60;99.90
14670;DHT22;7423;48.722;9.350;2022-12-29T06:51:44;13.00;99.90
14670;DHT22;7423;48.722;9.350;2022-12-29T06:54:10;12.50;99.90
14670;DHT22;7423;48.722;9.350;2022-12-29T06:56:37;12.50;99.90
14670;DHT22;7423;48.722;9.350;2022-12-29T06:59:04;12.40;99.90
14670;DHT22;7423;48.722;9.350;2022-12-29T07:01:31;12.50;99.90
14670;DHT22;7423;48.722;9.350;2022-12-29T07:03:58;12.50;99.90
14670;DHT22;7423;48.722;9.350;2022-12-29T07:06:25;12.60;99.90
14670;DHT22;7423;48.722;9.350;2022-12-29T07:08:52;12.70;99.90
14670;DHT22;7423;48.722;9.350;2022-12-29T07:11:21;12.60;99.90
14670;DHT22;7423;48.722;9.350;2022-12-29T07:13:48;12.60;99.90
14670;DHT22;7423;48.722;9.350;2022-12-29T07:16:15;12.60;99.90
14670;DHT22;7423;48.722;9.350;2022-12-29T07:18:42;12.60;99.90
14670;DHT22;7423;48.722;9.350;2022-12-29T07:21:09;12.70;99.90
14670;DHT22;7423;48.722;9.350;2022-12-29T07:23:36;12.60;99.90
14670;DHT22;7423;48.722;9.350;2022-12-29T07:26:06;12.60;99.90
14670;DHT22;7423;48.722;9.350;2022-12-29T07:28:35;12.60;99.90
14670;DHT22;7423;48.722;9.350;2022-12-29T07:31:02;12.60;99.90
14670;DHT22;7423;48.722;9.350;2022-12-29T07:33:29;12.60;99.90
14670;DHT22;7423;48.722;9.350;2022-12-29T07:35:58;12.50;99.90
14670;DHT22;7423;48.722;9.350;2022-12-29T07:38:25;12.50;99.90
14670;DHT22;7423;48.722;9.350;2022-12-29T07:40:56;12.60;99.90
14670;DHT22;7423;48.722;9.350;2022-12-29T07:43:25;12.70;99.90
14670;DHT22;7423;48.722;9.350;2022-12-29T07:45:52;12.60;99.90
14670;DHT22;7423;48.722;9.350;2022-12-29T07:48:19;12.70;99.90
14670;DHT22;7423;48.722;9.350;2022-12-29T07:50:46;12.80;99.90
14670;DHT22;7423;48.722;9.350;2022-12-29T07:53:13;12.80;99.90
14670;DHT22;7423;48.722;9.350;2022-12-29T07:55:40;12.90;99.90
14670;DHT22;7423;48.722;9.350;2022-12-29T07:58:07;12.80;99.90
14670;DHT22;7423;48.722;9.350;2022-12-29T08:00:34;12.80;99.90
14670;DHT22;7423;48.722;9.350;2022-12-29T08:03:01;12.80;99.90
14670;DHT22;7423;48.722;9.350;2022-12-29T08:05:27;12.70;99.90
14670;DHT22;7423;48.722;9.350;2022-12-29T08:07:54;12.70;99.90
14670;DHT22;7423;48.722;9.350;2022-12-29T08:10:21;12.60;99.90
14670;DHT22;7423;48.722;9.350;2022-12-29T08:12:49;12.50;99.90
14670;DHT22;7423;48.722;9.350;2022-12-29T08:15:16;12.50;99.90
14670;DHT22;7423;48.722;9.350;2022-12-29T08:17:43;12.50;99.90
14670;DHT22;7423;48.722;9.350;2022-12-29T08:20:10;12.40;99.90
14670;DHT22;7423;48.722;9.350;2022-12-29T08:22:37;12.40;99.90
14670;DHT22;7423;48.722;9.350;2022-12-29T08:25:04;12.40;99.90
14670;DHT22;7423;48.722;9.350;2022-12-29T08:27:31;12.40;99.90
14670;DHT22;7423;48.722;9.350;2022-12-29T08:29:58;12.40;99.90
14670;DHT22;7423;48.722;9.350;2022-12-29T08:32:27;12.40;99.90
14670;DHT22;7423;48.722;9.350;2022-12-29T08:34:57;12.40;99.90
14670;DHT22;7423;48.722;9.350;2022-12-29T08:37:24;12.40;99.90
14670;DHT22;7423;48.722;9.350;2022-12-29T08:39:56;12.50;99.90
14670;DHT22;7423;48.722;9.350;2022-12-29T08:42:25;12.50;99.90
14670;DHT22;7423;48.722;9.350;2022-12-29T08:44:58;12.50;99.90
14670;DHT22;7423;48.722;9.350;2022-12-29T08:47:25;12.50;99.90
14670;DHT22;7423;48.722;9.350;2022-12-29T08:49:52;12.50;99.90
14670;DHT22;7423;48.722;9.350;2022-12-29T08:52:19;12.50;99.90
14670;DHT22;7423;48.722;9.350;2022-12-29T08:54:46;12.60;99.90
14670;DHT22;7423;48.722;9.350;2022-12-29T08:57:12;12.60;99.90
14670;DHT22;7423;48.722;9.350;2022-12-29T08:59:39;12.70;99.90
14670;DHT22;7423;48.722;9.350;2022-12-29T09:02:11;12.80;99.90
14670;DHT22;7423;48.722;9.350;2022-12-29T09:04:40;12.80;99.90
14670;DHT22;7423;48.722;9.350;2022-12-29T09:07:07;12.80;99.90
14670;DHT22;7423;48.722;9.350;2022-12-29T09:09:34;12.70;99.90
14670;DHT22;7423;48.722;9.350;2022-12-29T09:12:01;12.70;99.90
14670;DHT22;7423;48.722;9.350;2022-12-29T09:14:28;12.70;99.90
14670;DHT22;7423;48.722;9.350;2022-12-29T09:16:55;12.60;99.90
14670;DHT22;7423;48.722;9.350;2022-12-29T09:19:40;13.30;99.90
14670;DHT22;7423;48.722;9.350;2022-12-29T09:22:07;12.70;99.90
14670;DHT22;7423;48.722;9.350;2022-12-29T09:24:34;12.60;99.90
14670;DHT22;7423;48.722;9.350;2022-12-29T09:27:01;12.60;99.90
14670;DHT22;7423;48.722;9.350;2022-12-29T09:29:28;12.60;99.90
14670;DHT22;7423;48.722;9.350;2022-12-29T09:31:55;12.60;99.90
14670;DHT22;7423;48.722;9.350;2022-12-29T09:34:22;12.60;99.90
14670;DHT22;7423;48.722;9.350;2022-12-29T09:36:49;12.60;99.90
14670;DHT22;7423;48.722;9.350;2022-12-29T09:39:16;12.60;99.90
14670;DHT22;7423;48.722;9.350;2022-12-29T09:42:06;12.80;99.90
14670;DHT22;7423;48.722;9.350;2022-12-29T09:44:42;13.00;99.90
14670;DHT22;7423;48.722;9.350;2022-12-29T09:47:16;13.00;99.90
14670;DHT22;7423;48.722;9.350;2022-12-29T09:49:49;13.10;99.90
14670;DHT22;7423;48.722;9.350;2022-12-29T09:52:22;13.20;99.90
14670;DHT22;7423;48.722;9.350;2022-12-29T09:55:05;13.30;99.90
14670;DHT22;7423;48.722;9.350;2022-12-29T09:58:12;13.50;99.90
14670;DHT22;7423;48.722;9.350;2022-12-29T10:03:42;13.60;99.90
14670;DHT22;7423;48.722;9.350;2022-12-29T10:15:04;13.80;99.90
14670;DHT22;7423;48.722;9.350;2022-12-29T10:17:54;13.90;99.90
14670;DHT22;7423;48.722;9.350;2022-12-29T10:20:31;13.90;99.90
14670;DHT22;7423;48.722;9.350;2022-12-29T10:26:01;13.90;99.90
14670;DHT22;7423;48.722;9.350;2022-12-29T10:28:42;14.00;99.90
14670;DHT22;7423;48.722;9.350;2022-12-29T10:31:23;13.90;99.90
14670;DHT22;7423;48.722;9.350;2022-12-29T10:33:56;14.00;99.90
14670;DHT22;7423;48.722;9.350;2022-12-29T10:36:38;14.00;99.90
14670;DHT22;7423;48.722;9.350;2022-12-29T10:42:45;14.10;99.90
14670;DHT22;7423;48.722;9.350;2022-12-29T10:44:56;14.10;99.90
14670;DHT22;7423;48.722;9.350;2022-12-29T10:47:29;14.10;99.90
14670;DHT22;7423;48.722;9.350;2022-12-29T10:50:00;14.10;99.90
14670;DHT22;7423;48.722;9.350;2022-12-29T10:52:28;14.20;99.90
14670;DHT22;7423;48.722;9.350;2022-12-29T10:55:02;14.20;99.90
14670;DHT22;7423;48.722;9.350;2022-12-29T10:57:43;14.30;99.90
14670;DHT22;7423;48.722;9.350;2022-12-29T11:00:13;14.30;99.90
14670;DHT22;7423;48.722;9.350;2022-12-29T11:02:47;14.30;99.90
14670;DHT22;7423;48.722;9.350;2022-12-29T11:05:41;14.40;99.90
14670;DHT22;7423;48.722;9.350;2022-12-29T11:08:16;14.40;99.90
14670;DHT22;7423;48.722;9.350;2022-12-29T11:10:46;14.30;99.90
14670;DHT22;7423;48.722;9.350;2022-12-29T11:13:26;14.40;99.90
14670;DHT22;7423;48.722;9.350;2022-12-29T11:16:04;14.40;99.90
14670;DHT22;7423;48.722;9.350;2022-12-29T11:18:39;14.50;99.90
14670;DHT22;7423;48.722;9.350;2022-12-29T11:24:01;14.50;99.90
14670;DHT22;7423;48.722;9.350;2022-12-29T11:26:33;14.60;99.90
14670;DHT22;7423;48.722;9.350;2022-12-29T11:29:17;14.60;99.90
14670;DHT22;7423;48.722;9.350;2022-12-29T11:31:50;14.60;99.90
14670;DHT22;7423;48.722;9.350;2022-12-29T11:34:31;14.40;99.90
14670;DHT22;7423;48.722;9.350;2022-12-29T11:37:06;14.60;99.90
14670;DHT22;7423;48.722;9.350;2022-12-29T11:39:44;14.60;99.90
14670;DHT22;7423;48.722;9.350;2022-12-29T11:42:18;14.70;99.90
14670;DHT22;7423;48.722;9.350;2022-12-29T11:44:49;14.60;99.90
14670;DHT22;7423;48.722;9.350;2022-12-29T11:47:35;14.60;99.90
14670;DHT22;7423;48.722;9.350;2022-12-29T11:50:05;14.60;99.90
14670;DHT22;7423;48.722;9.350;2022-12-29T11:52:35;14.60;99.90
14670;DHT22;7423;48.722;9.350;2022-12-29T11:55:17;14.70;99.90
14670;DHT22;7423;48.722;9.350;2022-12-29T11:57:47;14.60;99.90
14670;DHT22;7423;48.722;9.350;2022-12-29T12:00:24;14.60;99.90
14670;DHT22;7423;48.722;9.350;2022-12-29T12:03:01;14.60;99.90
14670;DHT22;7423;48.722;9.350;2022-12-29T12:05:32;14.60;99.90
14670;DHT22;7423;48.722;9.350;2022-12-29T12:08:13;14.60;99.90
14670;DHT22;7423;48.722;9.350;2022-12-29T12:10:57;14.60;99.90
14670;DHT22;7423;48.722;9.350;2022-12-29T12:13:39;14.60;99.90
14670;DHT22;7423;48.722;9.350;2022-12-29T12:16:17;14.60;99.90
14670;DHT22;7423;48.722;9.350;2022-12-29T12:18:52;14.70;99.90
14670;DHT22;7423;48.722;9.350;2022-12-29T12:21:32;14.70;99.90
14670;DHT22;7423;48.722;9.350;2022-12-29T12:27:02;14.70;99.90
14670;DHT22;7423;48.722;9.350;2022-12-29T12:35:32;14.70;99.90
14670;DHT22;7423;48.722;9.350;2022-12-29T12:38:14;14.70;99.90
14670;DHT22;7423;48.722;9.350;2022-12-29T12:41:08;14.70;99.90
14670;DHT22;7423;48.722;9.350;2022-12-29T12:43:51;14.70;99.90
14670;DHT22;7423;48.722;9.350;2022-12-29T12:52:52;14.70;99.90
14670;DHT22;7423;48.722;9.350;2022-12-29T12:56:33;14.50;99.90
14670;DHT22;7423;48.722;9.350;2022-12-29T13:05:16;14.50;99.90
14670;DHT22;7423;48.722;9.350;2022-12-29T13:10:53;14.50;99.90
14670;DHT22;7423;48.722;9.350;2022-12-29T13:13:35;14.50;99.90
14670;DHT22;7423;48.722;9.350;2022-12-29T13:17:21;14.60;99.90
14670;DHT22;7423;48.722;9.350;2022-12-29T13:19:36;14.60;99.90
14670;DHT22;7423;48.722;9.350;2022-12-29T13:22:09;14.60;99.90
14670;DHT22;7423;48.722;9.350;2022-12-29T13:27:50;14.70;99.90
14670;DHT22;7423;48.722;9.350;2022-12-29T13:31:04;14.70;99.90
14670;DHT22;7423;48.722;9.350;2022-12-29T13:34:00;14.60;99.90
14670;DHT22;7423;48.722;9.350;2022-12-29T13:36:48;14.60;99.90
14670;DHT22;7423;48.722;9.350;2022-12-29T13:39:30;14.60;99.90
14670;DHT22;7423;48.722;9.350;2022-12-29T13:41:59;14.60;99.90
14670;DHT22;7423;48.722;9.350;2022-12-29T13:44:33;14.50;99.90
14670;DHT22;7423;48.722;9.350;2022-12-29T13:47:31;14.50;99.90
14670;DHT22;7423;48.722;9.350;2022-12-29T13:50:01;14.40;99.90
14670;DHT22;7423;48.722;9.350;2022-12-29T13:52:49;14.10;99.90
14670;DHT22;7423;48.722;9.350;2022-12-29T13:55:47;14.20;99.90
14670;DHT22;7423;48.722;9.350;2022-12-29T14:01:30;13.80;99.90
14670;DHT22;7423;48.722;9.350;2022-12-29T14:04:08;14.40;99.90
14670;DHT22;7423;48.722;9.350;2022-12-29T14:06:37;14.40;99.90
14670;DHT22;7423;48.722;9.350;2022-12-29T14:12:36;14.50;99.90
14670;DHT22;7423;48.722;9.350;2022-12-29T14:17:39;14.60;99.90
14670;DHT22;7423;48.722;9.350;2022-12-29T14:20:20;14.60;99.90
14670;DHT22;7423;48.722;9.350;2022-12-29T14:23:01;14.60;99.90
14670;DHT22;7423;48.722;9.350;2022-12-29T14:28:43;14.50;99.90
14670;DHT22;7423;48.722;9.350;2022-12-29T14:36:37;14.60;99.90
14670;DHT22;7423;48.722;9.350;2022-12-29T14:39:28;14.60;99.90
14670;DHT22;7423;48.722;9.350;2022-12-29T14:44:47;14.70;99.90
14670;DHT22;7423;48.722;9.350;2022-12-29T14:53:05;14.60;99.90
14670;DHT22;7423;48.722;9.350;2022-12-29T14:55:46;14.50;99.90
14670;DHT22;7423;48.722;9.350;2022-12-29T15:00:59;14.60;99.90
14670;DHT22;7423;48.722;9.350;2022-12-29T15:03:32;14.60;99.90
14670;DHT22;7423;48.722;9.350;2022-12-29T15:06:08;14.60;99.90
14670;DHT22;7423;48.722;9.350;2022-12-29T15:08:42;14.60;99.90
14670;DHT22;7423;48.722;9.350;2022-12-29T15:11:31;14.60;99.90
14670;DHT22;7423;48.722;9.350;2022-12-29T15:14:32;14.50;99.90
14670;DHT22;7423;48.722;9.350;2022-12-29T15:19:51;14.40;99.90
14670;DHT22;7423;48.722;9.350;2022-12-29T15:22:18;14.30;99.90
14670;DHT22;7423;48.722;9.350;2022-12-29T15:24:46;14.30;99.90
14670;DHT22;7423;48.722;9.350;2022-12-29T15:27:14;14.30;99.90
14670;DHT22;7423;48.722;9.350;2022-12-29T15:29:45;14.30;99.90
14670;DHT22;7423;48.722;9.350;2022-12-29T15:34:48;14.20;99.90
14670;DHT22;7423;48.722;9.350;2022-12-29T15:37:25;14.10;99.90
14670;DHT22;7423;48.722;9.350;2022-12-29T15:39:55;14.10;99.90
14670;DHT22;7423;48.722;9.350;2022-12-29T15:45:34;14.20;99.90
14670;DHT22;7423;48.722;9.350;2022-12-29T15:48:03;14.20;99.90
14670;DHT22;7423;48.722;9.350;2022-12-29T15:50:33;14.20;99.90
14670;DHT22;7423;48.722;9.350;2022-12-29T15:53:01;14.20;99.90
14670;DHT22;7423;48.722;9.350;2022-12-29T15:55:34;14.20;99.90
14670;DHT22;7423;48.722;9.350;2022-12-29T15:58:05;14.20;99.90
14670;DHT22;7423;48.722;9.350;2022-12-29T16:00:47;14.30;99.90
14670;DHT22;7423;48.722;9.350;2022-12-29T16:03:27;14.20;99.90
14670;DHT22;7423;48.722;9.350;2022-12-29T16:06:08;14.20;99.90
14670;DHT22;7423;48.722;9.350;2022-12-29T16:09:02;14.20;99.90
14670;DHT22;7423;48.722;9.350;2022-12-29T16:11:38;14.20;99.90
14670;DHT22;7423;48.722;9.350;2022-12-29T16:14:13;14.20;99.90
14670;DHT22;7423;48.722;9.350;2022-12-29T16:16:46;14.20;99.90
14670;DHT22;7423;48.722;9.350;2022-12-29T16:19:35;14.20;99.90
14670;DHT22;7423;48.722;9.350;2022-12-29T16:22:17;14.20;99.90
14670;DHT22;7423;48.722;9.350;2022-12-29T16:24:56;14.20;99.90
14670;DHT22;7423;48.722;9.350;2022-12-29T16:27:39;14.20;99.90
14670;DHT22;7423;48.722;9.350;2022-12-29T16:30:17;14.10;99.90
14670;DHT22;7423;48.722;9.350;2022-12-29T16:32:58;14.10;99.90
14670;DHT22;7423;48.722;9.350;2022-12-29T16:35:45;14.20;99.90
14670;DHT22;7423;48.722;9.350;2022-12-29T16:40:55;14.20;99.90
14670;DHT22;7423;48.722;9.350;2022-12-29T16:43:31;14.20;99.90
14670;DHT22;7423;48.722;9.350;2022-12-29T16:48:29;14.10;99.90
14670;DHT22;7423;48.722;9.350;2022-12-29T16:51:17;14.10;99.90
14670;DHT22;7423;48.722;9.350;2022-12-29T16:53:52;14.10;99.90
14670;DHT22;7423;48.722;9.350;2022-12-29T16:56:33;14.10;99.90
14670;DHT22;7423;48.722;9.350;2022-12-29T16:59:05;14.00;99.90
14670;DHT22;7423;48.722;9.350;2022-12-29T17:01:38;13.90;99.90
14670;DHT22;7423;48.722;9.350;2022-12-29T17:04:11;13.90;99.90
14670;DHT22;7423;48.722;9.350;2022-12-29T17:06:39;13.90;99.90
14670;DHT22;7423;48.722;9.350;2022-12-29T17:11:50;13.80;99.90
14670;DHT22;7423;48.722;9.350;2022-12-29T17:14:49;13.80;99.90
14670;DHT22;7423;48.722;9.350;2022-12-29T17:17:35;13.70;99.90
14670;DHT22;7423;48.722;9.350;2022-12-29T17:22:44;13.60;99.90
14670;DHT22;7423;48.722;9.350;2022-12-29T17:25:14;13.60;99.90
14670;DHT22;7423;48.722;9.350;2022-12-29T17:27:51;13.60;99.90
14670;DHT22;7423;48.722;9.350;2022-12-29T17:30:22;13.50;99.90
14670;DHT22;7423;48.722;9.350;2022-12-29T17:33:03;13.50;99.90
14670;DHT22;7423;48.722;9.350;2022-12-29T17:35:31;13.50;99.90
14670;DHT22;7423;48.722;9.350;2022-12-29T17:37:58;13.50;99.90
14670;DHT22;7423;48.722;9.350;2022-12-29T17:40:28;13.40;99.90
14670;DHT22;7423;48.722;9.350;2022-12-29T17:42:57;13.40;99.90
14670;DHT22;7423;48.722;9.350;2022-12-29T17:45:29;13.40;99.90
14670;DHT22;7423;48.722;9.350;2022-12-29T17:47:58;13.40;99.90
14670;DHT22;7423;48.722;9.350;2022-12-29T17:50:29;13.30;99.90
14670;DHT22;7423;48.722;9.350;2022-12-29T17:52:59;13.30;99.90
14670;DHT22;7423;48.722;9.350;2022-12-29T17:55:29;13.30;99.90
14670;DHT22;7423;48.722;9.350;2022-12-29T17:58:17;13.20;99.90
14670;DHT22;7423;48.722;9.350;2022-12-29T18:00:46;13.20;99.90
14670;DHT22;7423;48.722;9.350;2022-12-29T18:03:15;13.20;99.90
14670;DHT22;7423;48.722;9.350;2022-12-29T18:05:44;13.10;99.90
14670;DHT22;7423;48.722;9.350;2022-12-29T18:08:11;13.10;99.90
14670;DHT22;7423;48.722;9.350;2022-12-29T18:10:38;13.10;99.90
14670;DHT22;7423;48.722;9.350;2022-12-29T18:13:06;13.00;99.90
14670;DHT22;7423;48.722;9.350;2022-12-29T18:15:34;13.00;99.90
14670;DHT22;7423;48.722;9.350;2022-12-29T18:18:10;13.00;99.90
14670;DHT22;7423;48.722;9.350;2022-12-29T18:20:40;12.90;99.90
14670;DHT22;7423;48.722;9.350;2022-12-29T18:23:18;12.90;99.90
14670;DHT22;7423;48.722;9.350;2022-12-29T18:28:51;12.80;99.90
14670;DHT22;7423;48.722;9.350;2022-12-29T18:31:28;12.80;99.90
14670;DHT22;7423;48.722;9.350;2022-12-29T18:33:57;12.80;99.90
14670;DHT22;7423;48.722;9.350;2022-12-29T18:36:26;12.90;99.90